Time;durP1;ratioP1;P1;durP2;ratioP2;P2;SDS_P1;SDS_P2;PMS_P1;PMS_P2;Temp;Humidity;BMP_temperature;BMP_pressure;BME280_temperature;BME280_humidity;BME280_pressure;Samples;Min_cycle;Max_cycle;Signal;HPM_P1;HPM_P2
2024/04/13 00:01:19;;;;;;;2.43;1.23;;;;;;;13.35;55.08;96872.34;5421369;26;20279;-82
2024/04/13 00:03:45;;;;;;;3.00;1.20;;;;;;;13.30;55.61;96867.50;5431861;26;20238;-82
2024/04/13 00:06:10;;;;;;;3.30;1.30;;;;;;;13.31;55.83;96856.13;5405531;26;20250;-82
2024/04/13 00:08:36;;;;;;;1.43;1.10;;;;;;;13.30;56.37;96857.91;5439396;26;20285;-82
2024/04/13 00:11:01;;;;;;;6.30;1.43;;;;;;;13.32;56.38;96866.41;5400867;26;20289;-83
2024/04/13 00:13:28;;;;;;;3.90;1.30;;;;;;;13.25;57.15;96857.50;5420154;26;20235;-82
2024/04/13 00:15:57;;;;;;;3.83;1.40;;;;;;;13.25;57.53;96857.50;5398207;26;20667;-83
2024/04/13 00:18:22;;;;;;;2.87;1.63;;;;;;;13.20;58.09;96857.03;5435028;26;20234;-83
2024/04/13 00:20:47;;;;;;;3.10;1.40;;;;;;;13.19;58.01;96844.09;5433102;26;20765;-83
2024/04/13 00:23:13;;;;;;;3.77;1.53;;;;;;;13.16;58.46;96845.19;5429387;26;20238;-82
2024/04/13 00:25:38;;;;;;;5.23;1.77;;;;;;;13.07;59.13;96840.75;5421474;26;20301;-82
2024/04/13 00:28:05;;;;;;;4.60;1.40;;;;;;;13.01;59.01;96841.28;5402190;26;20239;-83
2024/04/13 00:30:30;;;;;;;2.60;1.53;;;;;;;12.91;59.46;96824.78;5440879;26;20272;-82
2024/04/13 00:32:56;;;;;;;2.43;1.50;;;;;;;12.88;59.56;96840.66;5454979;25;20218;-83
2024/04/13 00:35:21;;;;;;;2.63;1.30;;;;;;;12.80;59.85;96837.88;5454960;25;20281;-83
2024/04/13 00:37:46;;;;;;;2.27;1.30;;;;;;;12.71;60.30;96835.09;5411624;26;20242;-83
2024/04/13 00:40:13;;;;;;;5.63;1.57;;;;;;;12.64;61.09;96835.78;5443997;25;20700;-82
2024/04/13 00:42:38;;;;;;;3.23;1.40;;;;;;;12.65;60.62;96835.63;5437210;26;20660;-82
2024/04/13 00:45:04;;;;;;;3.63;1.50;;;;;;;12.60;61.08;96827.38;5409692;26;20243;-84
2024/04/13 00:47:32;;;;;;;2.83;1.67;;;;;;;12.56;61.49;96823.38;5407781;26;20245;-83
2024/04/13 00:49:59;;;;;;;4.43;1.67;;;;;;;12.59;60.74;96820.50;5432737;26;20299;-83
2024/04/13 00:52:25;;;;;;;2.73;1.33;;;;;;;12.58;60.60;96816.25;5433803;26;20238;-82
2024/04/13 00:54:52;;;;;;;2.30;1.47;;;;;;;12.57;60.28;96809.41;5437111;26;20230;-83
2024/04/13 00:57:18;;;;;;;1.90;1.23;;;;;;;12.61;60.65;96817.78;5412401;26;20237;-82
2024/04/13 00:59:44;;;;;;;3.43;1.33;;;;;;;12.63;60.76;96815.84;5427655;26;20238;-82
2024/04/13 01:02:13;;;;;;;2.80;1.93;;;;;;;12.55;61.34;96816.53;5428197;26;20332;-83
2024/04/13 01:04:41;;;;;;;6.27;2.23;;;;;;;12.53;61.18;96810.59;5418071;26;20247;-83
2024/04/13 01:07:07;;;;;;;3.37;1.60;;;;;;;12.49;61.78;96811.81;5430372;26;20286;-82
2024/04/13 01:09:32;;;;;;;2.40;1.50;;;;;;;12.46;62.01;96799.88;5431664;26;20239;-82
2024/04/13 01:11:58;;;;;;;2.87;2.00;;;;;;;12.47;62.22;96801.53;5442573;26;20284;-83
2024/04/13 01:14:24;;;;;;;2.43;1.50;;;;;;;12.48;62.67;96794.53;5427940;26;20235;-82
2024/04/13 01:16:50;;;;;;;2.37;1.50;;;;;;;12.40;62.64;96799.56;5405980;26;20258;-82
2024/04/13 01:19:15;;;;;;;4.70;1.80;;;;;;;12.40;63.05;96796.97;5435020;26;20235;-82
2024/04/13 01:21:43;;;;;;;2.93;1.80;;;;;;;12.35;63.67;96802.53;5434925;26;20283;-82
2024/04/13 01:24:08;;;;;;;1.83;1.63;;;;;;;12.37;64.03;96803.25;5401756;26;20251;-83
2024/04/13 01:26:38;;;;;;;3.20;1.93;;;;;;;12.37;64.09;96803.25;5400308;26;20334;-82
2024/04/13 01:29:05;;;;;;;3.80;1.77;;;;;;;12.41;63.88;96803.81;5425842;26;20278;-82
2024/04/13 01:31:33;;;;;;;3.93;1.67;;;;;;;12.42;63.70;96805.47;5406359;26;20248;-82
2024/04/13 01:33:58;;;;;;;4.53;1.70;;;;;;;12.41;64.09;96811.63;5435125;26;20284;-82
2024/04/13 01:36:26;;;;;;;3.47;1.80;;;;;;;12.47;64.24;96811.94;5401569;26;20279;-82
2024/04/13 01:38:52;;;;;;;4.40;1.80;;;;;;;12.47;63.96;96811.13;5413292;26;20242;-84
2024/04/13 01:41:17;;;;;;;2.33;1.63;;;;;;;12.50;64.39;96812.63;5428713;26;20255;-82
2024/04/13 01:43:42;;;;;;;5.03;2.27;;;;;;;12.45;64.42;96810.41;5401166;26;20237;-82
2024/04/13 01:46:08;;;;;;;1.70;1.60;;;;;;;12.45;64.70;96813.00;5433960;26;20234;-82
2024/04/13 01:48:33;;;;;;;2.10;1.57;;;;;;;12.41;65.03;96811.63;5430051;26;20270;-82
2024/04/13 01:51:00;;;;;;;2.87;1.80;;;;;;;12.34;64.72;96813.09;5438159;26;20327;-83
2024/04/13 01:53:26;;;;;;;2.57;1.47;;;;;;;12.33;64.67;96807.06;5430976;26;20239;-82
2024/04/13 01:55:51;;;;;;;1.97;1.80;;;;;;;12.29;64.89;96810.06;5404057;26;20242;-82
2024/04/13 01:58:17;;;;;;;5.07;1.80;;;;;;;12.27;64.79;96806.72;5435902;26;20281;-82
2024/04/13 02:00:42;;;;;;;3.73;2.00;;;;;;;12.25;65.75;96806.88;5442983;26;20250;-82
2024/04/13 02:03:07;;;;;;;4.37;2.03;;;;;;;12.24;65.43;96815.63;5400235;26;20238;-83
2024/04/13 02:05:36;;;;;;;2.37;1.90;;;;;;;12.24;66.32;96814.81;5403899;26;20315;-83
2024/04/13 02:08:03;;;;;;;4.37;1.90;;;;;;;12.20;66.42;96811.66;5433149;26;20238;-82
2024/04/13 02:10:28;;;;;;;2.20;1.80;;;;;;;12.19;66.70;96815.16;5433670;26;20653;-82
2024/04/13 02:12:53;;;;;;;4.10;2.37;;;;;;;12.15;66.85;96812.00;5441182;26;20339;-83
2024/04/13 02:15:19;;;;;;;3.23;1.90;;;;;;;12.08;67.28;96813.47;5443578;26;20286;-83
2024/04/13 02:17:44;;;;;;;5.40;2.20;;;;;;;12.10;67.29;96818.53;5429124;26;20331;-83
2024/04/13 02:20:14;;;;;;;2.10;1.90;;;;;;;12.08;67.32;96820.44;5435809;26;20234;-81
2024/04/13 02:22:40;;;;;;;2.80;1.60;;;;;;;12.06;66.74;96806.72;5425739;26;20243;-81
2024/04/13 02:25:08;;;;;;;3.03;1.93;;;;;;;12.01;66.84;96804.50;5416554;26;20228;-82
2024/04/13 02:27:33;;;;;;;2.77;2.03;;;;;;;12.00;67.04;96796.81;5402729;26;20238;-82
2024/04/13 02:29:59;;;;;;;2.23;1.97;;;;;;;11.96;67.38;96806.66;5433298;26;20300;-82
2024/04/13 02:32:25;;;;;;;2.53;1.73;;;;;;;11.95;67.47;96806.78;5444896;26;20355;-84
2024/04/13 02:34:50;;;;;;;2.33;1.83;;;;;;;11.96;68.15;96801.47;5433220;26;20234;-83
2024/04/13 02:37:16;;;;;;;6.17;2.20;;;;;;;11.98;68.95;96804.75;5433494;26;20596;-81
2024/04/13 02:39:41;;;;;;;3.43;1.83;;;;;;;11.98;68.45;96802.16;5438724;26;21052;-82
2024/04/13 02:42:06;;;;;;;3.47;2.30;;;;;;;11.99;69.25;96796.00;5431882;26;20231;-82
2024/04/13 02:44:32;;;;;;;4.00;2.07;;;;;;;11.96;68.50;96801.47;5399022;26;20244;-83
2024/04/13 02:46:57;;;;;;;2.87;2.00;;;;;;;11.95;69.02;96799.00;5393772;26;20250;-83
2024/04/13 02:49:23;;;;;;;4.30;1.90;;;;;;;11.96;68.60;96793.66;5435253;26;20266;-82
2024/04/13 02:51:48;;;;;;;3.67;2.43;;;;;;;11.95;68.41;96804.19;5432003;26;20234;-82
2024/04/13 02:54:13;;;;;;;2.13;1.93;;;;;;;11.89;69.01;96793.31;5437579;26;20236;-83
2024/04/13 02:56:39;;;;;;;3.73;2.03;;;;;;;11.90;68.81;96804.56;5405151;26;20238;-83
2024/04/13 02:59:04;;;;;;;4.10;2.33;;;;;;;11.86;69.14;96803.16;5428789;26;20236;-83
2024/04/13 03:01:30;;;;;;;4.40;2.30;;;;;;;11.86;69.08;96805.78;5445422;26;20239;-83
2024/04/13 03:03:55;;;;;;;2.43;2.00;;;;;;;11.82;68.61;96802.56;5414257;26;20239;-82
2024/04/13 03:06:20;;;;;;;3.10;2.17;;;;;;;11.81;68.82;96800.09;5444202;26;20242;-83
2024/04/13 03:08:48;;;;;;;2.30;2.10;;;;;;;11.80;69.36;96798.44;5438402;26;20232;-83
2024/04/13 03:11:14;;;;;;;6.53;2.20;;;;;;;11.82;69.33;96809.56;5434145;26;20248;-83
2024/04/13 03:13:39;;;;;;;2.47;2.07;;;;;;;11.84;69.17;96807.69;5453144;26;20222;-82
2024/04/13 03:16:09;;;;;;;2.97;2.10;;;;;;;11.86;69.11;96810.97;5445527;26;20280;-82
2024/04/13 03:18:38;;;;;;;3.50;2.40;;;;;;;11.82;69.36;96799.97;5417663;26;20244;-82
2024/04/13 03:21:05;;;;;;;3.23;1.90;;;;;;;11.84;68.98;96799.88;5450714;26;20231;-82
2024/04/13 03:23:32;;;;;;;2.47;2.27;;;;;;;11.82;69.17;96793.94;5445905;26;20227;-83
2024/04/13 03:25:57;;;;;;;2.70;2.20;;;;;;;11.82;69.50;96797.38;5396623;26;20244;-82
2024/04/13 03:28:28;;;;;;;2.97;2.00;;;;;;;11.83;69.87;96798.19;5432975;26;20235;-83
2024/04/13 03:30:53;;;;;;;3.33;2.27;;;;;;;11.85;70.03;96794.53;5438923;26;20243;-84
2024/04/13 03:33:18;;;;;;;5.03;2.60;;;;;;;11.85;70.41;96794.53;5432362;26;20605;-83
2024/04/13 03:35:46;;;;;;;4.10;2.30;;;;;;;11.87;70.59;96797.00;5430616;26;20274;-84
2024/04/13 03:38:13;;;;;;;4.57;2.30;;;;;;;11.80;70.33;96791.47;5444686;26;20830;-83
2024/04/13 03:40:38;;;;;;;6.07;2.43;;;;;;;11.77;71.09;96796.91;5406989;26;20239;-84
2024/04/13 03:43:04;;;;;;;2.27;2.03;;;;;;;11.71;70.89;96793.97;5405642;26;20638;-83
2024/04/13 03:45:29;;;;;;;4.53;2.37;;;;;;;11.70;71.29;96793.13;5432609;26;20243;-83
2024/04/13 03:47:55;;;;;;;4.70;2.40;;;;;;;11.69;71.36;96790.66;5397951;26;20234;-83
2024/04/13 03:50:20;;;;;;;2.70;2.00;;;;;;;11.70;71.39;96792.31;5396164;26;20243;-83
2024/04/13 03:52:46;;;;;;;3.53;2.57;;;;;;;11.71;71.86;96791.34;5429985;26;20645;-82
2024/04/13 03:55:11;;;;;;;2.97;2.60;;;;;;;11.72;72.18;96780.00;5425913;26;20269;-82
2024/04/13 03:57:36;;;;;;;2.60;2.40;;;;;;;11.71;71.98;96786.97;5410746;26;20704;-83
2024/04/13 04:00:06;;;;;;;2.63;2.30;;;;;;;11.71;72.28;96786.16;5393175;26;20248;-81
2024/04/13 04:02:32;;;;;;;5.17;2.27;;;;;;;11.71;71.61;96791.34;5418213;26;20268;-83
2024/04/13 04:04:57;;;;;;;3.20;2.10;;;;;;;11.65;71.79;96782.25;5441585;26;20250;-82
2024/04/13 04:07:23;;;;;;;4.23;2.87;;;;;;;11.63;71.84;96785.00;5404102;26;20283;-83
2024/04/13 04:09:48;;;;;;;4.30;2.67;;;;;;;11.59;71.69;96782.78;5436277;26;20242;-81
2024/04/13 04:12:13;;;;;;;3.60;1.93;;;;;;;11.54;71.31;96780.53;5443666;26;20242;-82
2024/04/13 04:14:39;;;;;;;2.77;2.10;;;;;;;11.53;71.47;96775.44;5434025;26;20663;-81
2024/04/13 04:17:05;;;;;;;4.63;2.27;;;;;;;11.54;72.68;96772.72;5432198;26;20727;-83
2024/04/13 04:19:31;;;;;;;3.20;2.20;;;;;;;11.54;72.93;96771.91;5435543;26;20290;-82
2024/04/13 04:21:56;;;;;;;2.67;2.47;;;;;;;11.57;73.88;96782.91;5432196;26;20238;-81
2024/04/13 04:24:22;;;;;;;3.30;2.10;;;;;;;11.62;73.27;96778.13;5438642;26;20284;-82
2024/04/13 04:26:48;;;;;;;4.10;2.60;;;;;;;11.61;73.90;96781.69;5442108;26;20273;-83
2024/04/13 04:29:14;;;;;;;4.00;2.70;;;;;;;11.61;73.65;96778.28;5406716;26;20309;-83
2024/04/13 04:31:41;;;;;;;4.97;2.70;;;;;;;11.61;73.73;96776.50;5436202;26;20280;-83
2024/04/13 04:34:07;;;;;;;3.33;2.60;;;;;;;11.59;73.74;96781.00;5413238;26;20238;-82
2024/04/13 04:36:32;;;;;;;6.37;2.87;;;;;;;11.54;73.54;96775.31;5395805;26;20355;-83
2024/04/13 04:38:58;;;;;;;3.80;2.60;;;;;;;11.45;73.16;96776.06;5441303;26;20230;-82
2024/04/13 04:41:23;;;;;;;3.13;2.40;;;;;;;11.44;72.61;96776.19;5428539;26;20243;-82
2024/04/13 04:43:49;;;;;;;4.17;2.87;;;;;;;11.41;72.89;96774.66;5431060;26;20330;-83
2024/04/13 04:46:14;;;;;;;5.47;2.90;;;;;;;11.43;72.83;96767.56;5396673;26;20243;-82
2024/04/13 04:48:40;;;;;;;4.13;2.93;;;;;;;11.47;73.69;96779.38;5398915;26;20264;-83
2024/04/13 04:51:05;;;;;;;5.23;2.80;;;;;;;11.49;73.76;96782.69;5432954;26;20242;-83
2024/04/13 04:53:30;;;;;;;4.20;2.70;;;;;;;11.51;73.78;96777.34;5428071;26;20236;-82
2024/04/13 04:55:59;;;;;;;3.70;2.53;;;;;;;11.49;73.88;96777.50;5403497;26;20250;-82
2024/04/13 04:58:24;;;;;;;4.87;2.93;;;;;;;11.52;74.32;96776.41;5434327;26;20298;-82
2024/04/13 05:00:50;;;;;;;3.93;2.70;;;;;;;11.61;74.23;96775.66;5427158;26;20254;-83
2024/04/13 05:03:16;;;;;;;2.90;2.60;;;;;;;11.64;74.36;96778.84;5430907;26;20255;-82
2024/04/13 05:05:41;;;;;;;3.47;2.50;;;;;;;11.67;73.60;96784.75;5449124;26;20803;-81
2024/04/13 05:08:07;;;;;;;3.47;2.60;;;;;;;11.63;73.17;96784.16;5431584;26;20234;-82
2024/04/13 05:10:32;;;;;;;5.17;2.43;;;;;;;11.71;73.41;96778.34;5396078;26;20281;-83
2024/04/13 05:12:57;;;;;;;6.23;2.80;;;;;;;11.76;73.56;96781.41;5423385;26;20246;-82
2024/04/13 05:15:23;;;;;;;4.30;2.97;;;;;;;11.84;73.24;96777.28;5432242;26;20343;-83
2024/04/13 05:17:48;;;;;;;5.53;3.03;;;;;;;11.82;73.62;96780.94;5431323;26;20344;-82
2024/04/13 05:20:14;;;;;;;3.17;2.57;;;;;;;11.85;73.49;96778.09;5401632;26;20285;-82
2024/04/13 05:22:39;;;;;;;3.70;2.70;;;;;;;11.97;73.52;96777.06;5400958;26;20339;-83
2024/04/13 05:25:05;;;;;;;4.33;3.07;;;;;;;11.99;73.62;96772.56;5425812;26;20238;-83
2024/04/13 05:27:31;;;;;;;4.60;2.90;;;;;;;12.00;72.92;96781.19;5438529;26;20281;-83
2024/04/13 05:30:02;;;;;;;4.90;2.93;;;;;;;12.21;72.83;96783.81;5429137;26;20241;-82
2024/04/13 05:32:27;;;;;;;4.33;2.73;;;;;;;12.27;72.66;96784.13;5396923;26;20239;-82
2024/04/13 05:34:52;;;;;;;3.13;2.83;;;;;;;12.25;73.22;96782.59;5392241;26;20332;-82
2024/04/13 05:37:18;;;;;;;6.87;3.03;;;;;;;12.21;73.74;96779.44;5425543;26;20607;-82
2024/04/13 05:39:43;;;;;;;3.50;2.37;;;;;;;12.36;73.31;96779.91;5427414;26;20586;-82
2024/04/13 05:42:08;;;;;;;7.40;3.13;;;;;;;12.34;74.21;96790.47;5431629;26;20335;-82
2024/04/13 05:44:34;;;;;;;4.00;2.70;;;;;;;12.46;74.33;96799.06;5428320;26;20235;-82
2024/04/13 05:46:59;;;;;;;3.93;2.93;;;;;;;12.47;74.57;96795.50;5432674;26;20250;-83
2024/04/13 05:49:24;;;;;;;3.67;2.70;;;;;;;12.61;73.87;96792.53;5417999;25;20321;-82
2024/04/13 05:51:50;;;;;;;4.17;2.67;;;;;;;12.83;73.52;96801.16;5417284;26;21027;-83
2024/04/13 05:54:15;;;;;;;4.30;2.67;;;;;;;12.96;72.77;96797.34;5405601;26;20250;-82
2024/04/13 05:56:40;;;;;;;2.97;2.30;;;;;;;13.19;72.72;96792.78;5431103;26;20285;-83
2024/04/13 05:59:06;;;;;;;4.83;2.80;;;;;;;13.39;72.71;96795.44;5417823;26;20580;-82
2024/04/13 06:01:32;;;;;;;3.63;2.30;;;;;;;13.62;72.38;96789.03;5388357;26;20259;-83
2024/04/13 06:03:57;;;;;;;5.30;2.60;;;;;;;13.71;72.19;96795.22;5423747;26;20724;-82
2024/04/13 06:06:24;;;;;;;5.57;2.63;;;;;;;13.79;71.89;96795.38;5402641;26;20712;-81
2024/04/13 06:08:49;;;;;;;3.10;2.80;;;;;;;13.87;71.91;96801.56;5419582;26;20342;-81
2024/04/13 06:11:14;;;;;;;3.33;2.57;;;;;;;14.14;71.25;96802.66;5428364;26;20344;-80
2024/04/13 06:13:41;;;;;;;5.80;2.87;;;;;;;14.26;70.57;96795.47;5441797;26;20242;-80
2024/04/13 06:16:06;;;;;;;3.07;2.20;;;;;;;14.56;70.77;96808.34;5405647;26;20364;-80
2024/04/13 06:18:32;;;;;;;6.20;2.93;;;;;;;14.73;70.39;96812.84;5431676;26;20724;-81
2024/04/13 06:20:57;;;;;;;3.07;2.77;;;;;;;15.00;70.04;96814.69;5428719;26;20239;-81
2024/04/13 06:23:22;;;;;;;4.77;2.57;;;;;;;15.18;68.83;96813.91;5421261;26;20293;-81
2024/04/13 06:25:48;;;;;;;4.50;3.03;;;;;;;15.41;68.35;96823.03;5429857;26;20242;-81
2024/04/13 06:28:14;;;;;;;5.07;2.40;;;;;;;15.59;67.23;96821.25;5437982;26;20226;-81
2024/04/13 06:30:42;;;;;;;5.40;3.00;;;;;;;15.78;66.67;96830.00;5431436;26;20243;-83
2024/04/13 06:33:08;;;;;;;2.60;2.30;;;;;;;15.95;65.99;96816.09;5398470;26;20250;-83
2024/04/13 06:35:33;;;;;;;5.00;2.90;;;;;;;16.11;64.43;96818.03;5412257;26;20254;-84
2024/04/13 06:37:59;;;;;;;3.50;2.70;;;;;;;16.24;64.00;96817.63;5431201;26;20321;-81
2024/04/13 06:40:24;;;;;;;4.20;2.53;;;;;;;16.34;63.56;96813.13;5392057;26;20243;-82
2024/04/13 06:42:50;;;;;;;4.33;3.07;;;;;;;16.47;61.57;96820.59;5426033;26;20227;-82
2024/04/13 06:45:16;;;;;;;3.17;2.80;;;;;;;16.63;61.28;96816.28;5396629;26;20243;-83
2024/04/13 06:47:42;;;;;;;4.97;3.00;;;;;;;16.73;60.93;96818.00;5426113;26;20272;-81
2024/04/13 06:50:07;;;;;;;3.53;2.90;;;;;;;16.84;59.52;96820.38;5431682;26;20234;-81
2024/04/13 06:52:32;;;;;;;4.70;2.73;;;;;;;16.90;59.02;96822.38;5427623;26;20233;-82
2024/04/13 06:54:58;;;;;;;4.37;2.90;;;;;;;17.02;58.57;96825.53;5423959;26;20245;-81
2024/04/13 06:57:25;;;;;;;5.05;2.90;;;;;;;17.04;58.65;96828.84;5401473;26;20248;-81
2024/04/13 06:59:51;;;;;;;5.70;3.30;;;;;;;17.13;57.72;96831.34;5427246;26;20238;-81
2024/04/13 07:02:16;;;;;;;4.10;3.00;;;;;;;17.19;57.80;96833.34;5434772;26;20238;-83
2024/04/13 07:04:41;;;;;;;5.28;3.20;;;;;;;17.19;57.33;96832.53;5428603;26;20278;-81
2024/04/13 07:07:07;;;;;;;5.65;2.85;;;;;;;17.23;57.07;96834.69;5424523;26;20286;-82
2024/04/13 07:09:32;;;;;;;5.10;3.25;;;;;;;17.21;56.61;96834.00;5427737;26;20251;-81
2024/04/13 07:11:57;;;;;;;7.23;3.50;;;;;;;17.43;56.61;96837.06;5395093;26;20762;-82
2024/04/13 07:14:23;;;;;;;5.47;2.92;;;;;;;17.38;56.75;96837.50;5435359;26;20292;-83
2024/04/13 07:16:50;;;;;;;3.53;2.40;;;;;;;17.31;56.93;96831.25;5425968;26;20243;-81
2024/04/13 07:19:15;;;;;;;5.70;3.25;;;;;;;17.51;56.35;96832.66;5431234;26;20246;-82
2024/04/13 07:21:40;;;;;;;4.22;3.03;;;;;;;17.51;56.21;96835.28;5431653;26;20548;-81
2024/04/13 07:24:06;;;;;;;4.00;3.00;;;;;;;17.61;55.68;96826.44;5431551;26;20266;-82
2024/04/13 07:26:31;;;;;;;3.15;2.58;;;;;;;17.60;56.09;96827.44;5420730;26;20243;-81
2024/04/13 07:28:57;;;;;;;7.82;3.55;;;;;;;17.84;55.51;96830.13;5427069;26;20246;-81
2024/04/13 07:31:22;;;;;;;5.78;2.60;;;;;;;17.86;55.71;96836.06;5424262;26;20342;-81
2024/04/13 07:33:47;;;;;;;5.50;3.13;;;;;;;17.97;55.71;96832.28;5397362;26;20315;-82
2024/04/13 07:36:13;;;;;;;5.43;3.00;;;;;;;17.94;55.13;96833.44;5432676;26;20740;-82
2024/04/13 07:38:39;;;;;;;6.10;3.05;;;;;;;18.28;53.58;96829.84;5437060;26;20238;-82
2024/04/13 07:41:04;;;;;;;4.70;2.85;;;;;;;18.32;54.10;96825.91;5431034;26;20243;-82
2024/04/13 07:43:30;;;;;;;5.72;3.35;;;;;;;18.30;54.30;96823.44;5398885;26;20238;-82
2024/04/13 07:45:55;;;;;;;4.05;2.63;;;;;;;18.41;53.96;96824.91;5432365;26;20311;-82
2024/04/13 07:48:20;;;;;;;5.80;2.90;;;;;;;18.27;53.63;96821.13;5426028;26;20279;-82
2024/04/13 07:50:46;;;;;;;7.18;3.00;;;;;;;18.36;53.69;96821.94;5435073;26;20235;-82
2024/04/13 07:53:11;;;;;;;5.00;3.30;;;;;;;18.09;54.06;96820.47;5434936;26;20238;-82
2024/04/13 07:55:36;;;;;;;4.97;3.20;;;;;;;18.37;53.45;96818.34;5397346;26;20249;-81
2024/04/13 07:58:02;;;;;;;3.92;3.13;;;;;;;18.52;52.78;96815.88;5430540;26;20269;-81
2024/04/13 08:00:27;;;;;;;4.50;3.97;;;;;;;18.17;53.45;96823.09;5413997;26;20287;-81
2024/04/13 08:02:53;;;;;;;4.50;3.20;;;;;;;18.04;54.31;96812.25;5442123;26;20238;-82
2024/04/13 08:05:18;;;;;;;3.00;2.70;;;;;;;18.33;53.65;96809.97;5434157;26;20281;-81
2024/04/13 08:07:43;;;;;;;6.68;3.40;;;;;;;18.32;53.08;96818.84;5409992;26;20265;-81
2024/04/13 08:10:09;;;;;;;5.10;3.42;;;;;;;18.52;52.68;96808.78;5446250;26;20242;-82
2024/04/13 08:12:34;;;;;;;6.05;3.15;;;;;;;18.64;52.14;96809.25;5428033;26;20281;-81
2024/04/13 08:14:59;;;;;;;4.90;2.63;;;;;;;18.81;53.03;96799.56;5434148;26;20228;-82
2024/04/13 08:17:28;;;;;;;4.95;2.72;;;;;;;18.89;52.70;96805.63;5431996;26;20277;-82
2024/04/13 08:19:54;;;;;;;4.88;2.38;;;;;;;19.34;51.03;96796.25;5436941;26;20270;-83
2024/04/13 08:22:19;;;;;;;4.57;2.70;;;;;;;19.18;50.93;96797.16;5397590;26;20242;-81
2024/04/13 08:24:44;;;;;;;5.40;2.38;;;;;;;19.19;51.26;96798.78;5426181;26;20239;-81
2024/04/13 08:27:10;;;;;;;6.03;2.60;;;;;;;19.36;50.63;96794.28;5429712;26;20234;-82
2024/04/13 08:29:35;;;;;;;5.88;2.80;;;;;;;19.74;51.53;96794.44;5431610;26;20762;-82
2024/04/13 08:32:01;;;;;;;5.60;2.70;;;;;;;20.00;49.50;96794.09;5403008;26;20265;-81
2024/04/13 08:34:26;;;;;;;5.35;2.50;;;;;;;19.83;50.04;96785.47;5423343;26;20286;-81
2024/04/13 08:36:52;;;;;;;4.28;2.55;;;;;;;19.91;49.69;96793.31;5425606;26;20255;-82
2024/04/13 08:39:18;;;;;;;5.30;2.80;;;;;;;20.11;49.56;96777.03;5442497;26;20242;-81
2024/04/13 08:41:55;;;;;;;2.53;2.30;;;;;;;20.47;48.91;96785.16;5407871;26;20245;-82
2024/04/13 08:44:20;;;;;;;4.38;2.35;;;;;;;20.40;49.17;96782.38;5436142;26;20230;-81
2024/04/13 08:46:46;;;;;;;6.03;2.58;;;;;;;19.95;49.30;96783.22;5429106;26;20232;-82
2024/04/13 08:49:13;;;;;;;5.72;2.38;;;;;;;20.25;48.80;96781.53;5447320;26;20242;-82
2024/04/13 08:51:39;;;;;;;3.65;2.08;;;;;;;19.97;48.81;96776.81;5391655;26;20240;-83
2024/04/13 08:54:05;;;;;;;3.80;2.28;;;;;;;20.37;48.48;96774.81;5402434;26;20329;-83
2024/04/13 08:56:30;;;;;;;5.05;2.40;;;;;;;20.44;49.31;96770.50;5431185;26;20841;-82
2024/04/13 08:58:57;;;;;;;113.22;16.40;;;;;;;20.42;48.64;96775.13;5406186;26;20265;-81
2024/04/13 09:01:26;;;;;;;9.05;2.67;;;;;;;20.81;47.42;96771.44;5435363;26;20310;-82
2024/04/13 09:03:52;;;;;;;4.30;1.48;;;;;;;21.17;45.76;96768.88;5436014;26;20784;-83
2024/04/13 09:06:18;;;;;;;5.72;1.83;;;;;;;21.09;47.17;96771.63;5435589;26;20716;-82
2024/04/13 09:08:46;;;;;;;2.45;1.73;;;;;;;21.31;46.50;96767.28;5428598;26;20236;-82
2024/04/13 09:11:11;;;;;;;3.50;1.52;;;;;;;21.12;46.39;96766.00;5433597;26;20311;-82
2024/04/13 09:13:38;;;;;;;3.65;1.42;;;;;;;21.23;46.62;96767.34;5437249;26;20333;-82
2024/04/13 09:16:06;;;;;;;2.35;1.42;;;;;;;21.52;43.59;96761.19;5392113;26;20243;-82
2024/04/13 09:18:31;;;;;;;3.05;1.52;;;;;;;21.41;44.10;96763.31;5416456;26;20243;-82
2024/04/13 09:20:57;;;;;;;2.28;1.50;;;;;;;21.00;43.98;96757.69;5432292;26;20759;-82
2024/04/13 09:23:25;;;;;;;3.58;1.55;;;;;;;21.39;43.99;96761.88;5402083;26;20319;-82
2024/04/13 09:26:01;;;;;;;4.03;1.80;;;;;;;21.48;44.70;96755.47;5440197;26;20719;-82
2024/04/13 09:28:46;;;;;;;4.18;1.77;;;;;;;21.61;44.89;96750.31;5437386;26;20242;-82
2024/04/13 09:31:15;;;;;;;6.38;1.70;;;;;;;21.28;45.82;96757.06;5430892;26;21312;-82
2024/04/13 09:33:47;;;;;;;2.75;1.50;;;;;;;21.28;44.90;96762.34;5438319;26;20323;-82
2024/04/13 09:36:25;;;;;;;2.47;1.40;;;;;;;21.76;44.67;96750.28;5432084;26;20768;-82
2024/04/13 09:38:53;;;;;;;3.25;1.58;;;;;;;21.76;44.33;96753.75;5434569;26;20267;-82
2024/04/13 09:41:19;;;;;;;3.45;1.52;;;;;;;21.94;44.75;96745.38;5439902;26;20247;-82
2024/04/13 09:43:47;;;;;;;3.20;1.35;;;;;;;21.95;43.15;96749.66;5433011;26;20288;-83
2024/04/13 09:46:13;;;;;;;2.40;1.50;;;;;;;22.05;42.39;96747.50;5405102;26;20258;-82
2024/04/13 09:48:38;;;;;;;4.47;1.35;;;;;;;22.26;41.86;96741.41;5396691;26;20243;-82
2024/04/13 09:51:04;;;;;;;2.38;1.50;;;;;;;21.70;43.95;96743.09;5411090;26;20251;-81
2024/04/13 09:53:30;;;;;;;2.63;1.30;;;;;;;22.24;42.12;96734.66;5424124;26;20231;-81
2024/04/13 09:55:56;;;;;;;3.33;1.20;;;;;;;22.24;41.79;96724.06;5437596;26;20238;-82
2024/04/13 09:58:22;;;;;;;2.78;1.23;;;;;;;22.27;42.29;96724.53;5425120;26;20809;-82
2024/04/13 10:00:47;;;;;;;1.63;1.35;;;;;;;22.61;40.53;96726.34;5395357;26;20262;-81
2024/04/13 10:03:14;;;;;;;1.55;1.17;;;;;;;22.45;40.51;96717.94;5420399;26;20291;-82
2024/04/13 10:05:39;;;;;;;3.47;1.55;;;;;;;22.55;41.52;96721.88;5443490;26;20272;-83
2024/04/13 10:08:06;;;;;;;2.42;1.50;;;;;;;22.03;41.81;96720.44;5403100;26;20699;-83
2024/04/13 10:10:34;;;;;;;2.97;1.50;;;;;;;21.95;42.01;96712.63;5405976;26;20243;-82
2024/04/13 10:12:59;;;;;;;1.88;1.30;;;;;;;22.22;41.86;96716.34;5435729;26;20246;-82
2024/04/13 10:15:25;;;;;;;1.63;1.05;;;;;;;22.77;40.03;96714.66;5436852;26;20301;-82
2024/04/13 10:17:50;;;;;;;1.50;1.00;;;;;;;23.00;39.30;96709.09;5399964;26;20273;-82
2024/04/13 10:20:16;;;;;;;5.18;1.95;;;;;;;22.88;38.92;96705.34;5431260;26;20245;-82
2024/04/13 10:22:54;;;;;;;1.58;1.02;;;;;;;23.41;38.98;96706.41;5388465;26;20274;-83
2024/04/13 10:25:26;;;;;;;1.40;1.00;;;;;;;22.92;39.09;96700.50;5388327;26;20250;-82
2024/04/13 10:28:03;;;;;;;3.25;1.23;;;;;;;23.21;38.71;96699.38;5389782;26;20656;-82
2024/04/13 10:30:28;;;;;;;1.20;1.08;;;;;;;23.06;38.98;96697.72;5422807;26;20711;-82
2024/04/13 10:32:54;;;;;;;1.88;0.82;;;;;;;23.55;37.41;96687.88;5426316;26;20243;-83
2024/04/13 10:35:25;;;;;;;5.95;1.15;;;;;;;23.78;36.59;96693.66;5425612;26;20716;-82
2024/04/13 10:37:51;;;;;;;1.65;1.08;;;;;;;23.39;38.05;96694.34;5383784;26;20974;-81
2024/04/13 10:40:23;;;;;;;2.80;1.10;;;;;;;23.65;37.81;96690.97;5430571;26;20243;-80
2024/04/13 10:42:48;;;;;;;3.17;1.15;;;;;;;23.48;38.26;96689.69;5394945;26;20307;-79
2024/04/13 10:45:17;;;;;;;5.60;1.65;;;;;;;23.35;37.93;96685.16;5404339;26;20239;-81
2024/04/13 10:47:43;;;;;;;2.17;1.30;;;;;;;23.56;37.93;96687.66;5398752;26;20276;-80
2024/04/13 10:50:18;;;;;;;3.75;1.10;;;;;;;24.07;36.01;96678.34;5407975;26;20733;-81
2024/04/13 10:52:44;;;;;;;2.53;1.05;;;;;;;24.09;36.13;96674.47;5431968;26;20802;-81
2024/04/13 10:55:14;;;;;;;2.97;1.17;;;;;;;23.87;37.57;96673.88;5428554;26;20238;-83
2024/04/13 10:57:41;;;;;;;3.17;1.27;;;;;;;23.98;35.65;96675.91;5430224;26;20294;-85
2024/04/13 11:00:08;;;;;;;1.48;1.10;;;;;;;24.14;35.04;96679.16;5397254;26;20336;-83
2024/04/13 11:02:35;;;;;;;1.73;1.10;;;;;;;23.63;35.99;96666.50;5429684;26;20242;-84
2024/04/13 11:05:00;;;;;;;3.97;1.38;;;;;;;23.83;35.99;96669.97;5390774;26;20282;-83
2024/04/13 11:07:25;;;;;;;2.67;1.30;;;;;;;23.77;35.94;96662.84;5428628;26;20239;-83
2024/04/13 11:09:51;;;;;;;1.33;0.93;;;;;;;24.02;34.75;96660.38;5424820;26;20694;-85
2024/04/13 11:12:16;;;;;;;1.40;1.17;;;;;;;24.21;34.98;96664.06;5440424;26;20270;-85
2024/04/13 11:14:41;;;;;;;5.22;2.53;;;;;;;23.93;39.14;96667.72;5424801;26;20235;-84
2024/04/13 11:17:08;;;;;;;5.95;1.92;;;;;;;24.37;40.18;96671.59;5412683;26;20322;-84
2024/04/13 11:19:34;;;;;;;3.13;2.13;;;;;;;24.12;40.09;96662.63;5422837;26;20307;-80
2024/04/13 11:21:59;;;;;;;3.75;1.88;;;;;;;23.93;40.25;96659.75;5423169;26;20238;-82
2024/04/13 11:24:25;;;;;;;3.92;2.28;;;;;;;23.81;41.49;96653.44;5404664;26;20246;-82
2024/04/13 11:26:51;;;;;;;9.80;2.40;;;;;;;24.05;41.58;96656.53;5419705;26;20286;-81
2024/04/13 11:29:17;;;;;;;3.75;2.35;;;;;;;23.85;41.39;96651.19;5422250;26;20288;-83